Time;durP1;ratioP1;P1;durP2;ratioP2;P2;SDS_P1;SDS_P2;PMS_P1;PMS_P2;Temp;Humidity;BMP_temperature;BMP_pressure;BME280_temperature;BME280_humidity;BME280_pressure;Samples;Min_cycle;Max_cycle;Signal;HPM_P1;HPM_P2
2024/01/14 00:01:56;;;;;;;17.67;3.13;;;5.70;99.90;;;;;;5060194;28;20044;-50
2024/01/14 00:04:22;;;;;;;26.42;3.25;;;5.70;99.90;;;;;;5064479;28;20048;-46
2024/01/14 00:06:49;;;;;;;17.95;2.55;;;5.70;99.90;;;;;;5064423;28;20451;-49
2024/01/14 00:09:16;;;;;;;17.90;2.28;;;5.70;99.90;;;;;;5064847;28;20113;-48
2024/01/14 00:11:41;;;;;;;13.80;2.28;;;5.70;99.90;;;;;;5065017;28;20040;-49
2024/01/14 00:14:07;;;;;;;15.15;2.75;;;5.70;99.90;;;;;;5051888;28;20647;-51
2024/01/14 00:16:34;;;;;;;18.05;2.92;;;5.70;99.90;;;;;;5053075;28;20040;-50
2024/01/14 00:19:03;;;;;;;12.73;2.03;;;5.70;99.90;;;;;;5054547;28;20521;-48
2024/01/14 00:21:29;;;;;;;18.63;3.38;;;5.60;99.90;;;;;;5065828;28;20119;-49
2024/01/14 00:23:55;;;;;;;14.93;2.40;;;5.60;99.90;;;;;;5043607;28;20135;-46
2024/01/14 00:26:24;;;;;;;16.17;1.73;;;5.60;99.90;;;;;;5064552;28;20354;-48
2024/01/14 00:28:52;;;;;;;11.38;1.98;;;5.60;99.90;;;;;;5046316;28;20329;-52
2024/01/14 00:31:18;;;;;;;14.30;2.75;;;5.60;99.90;;;;;;5064005;28;20036;-48
2024/01/14 00:33:43;;;;;;;9.95;1.83;;;5.60;99.90;;;;;;5061585;28;20392;-50
2024/01/14 00:36:10;;;;;;;13.77;2.38;;;5.60;99.90;;;;;;5057537;28;20037;-46
2024/01/14 00:38:36;;;;;;;8.73;2.15;;;5.50;99.90;;;;;;5064373;28;20090;-48
2024/01/14 00:41:01;;;;;;;7.43;1.40;;;5.40;99.90;;;;;;5064644;28;20578;-46
2024/01/14 00:43:27;;;;;;;10.95;1.45;;;5.40;99.90;;;;;;5063788;28;20048;-50
2024/01/14 00:45:53;;;;;;;11.20;1.15;;;5.40;99.90;;;;;;5064403;28;20048;-46
2024/01/14 00:48:19;;;;;;;10.43;1.23;;;5.40;99.90;;;;;;5064022;28;20519;-48
2024/01/14 00:50:45;;;;;;;11.00;1.27;;;5.40;99.90;;;;;;5063869;28;20151;-50
2024/01/14 00:53:11;;;;;;;10.15;1.00;;;5.30;99.90;;;;;;5062714;28;20435;-49
2024/01/14 00:55:37;;;;;;;12.27;1.40;;;5.30;99.90;;;;;;5064343;28;20386;-53
2024/01/14 00:58:03;;;;;;;10.68;1.67;;;5.30;99.90;;;;;;5061772;28;20359;-50
2024/01/14 01:00:29;;;;;;;11.07;1.52;;;5.20;99.90;;;;;;5067525;28;20048;-47
2024/01/14 01:02:54;;;;;;;9.73;1.30;;;5.20;99.90;;;;;;5063580;28;20609;-47
2024/01/14 01:05:21;;;;;;;11.75;1.50;;;5.20;99.90;;;;;;5064605;28;20040;-50
2024/01/14 01:07:47;;;;;;;10.10;1.90;;;5.20;99.90;;;;;;5060273;28;20040;-49
2024/01/14 01:10:13;;;;;;;8.65;1.95;;;5.30;99.90;;;;;;5060072;28;20461;-47
2024/01/14 01:12:39;;;;;;;18.65;1.88;;;5.30;99.90;;;;;;5056000;28;20043;-47
2024/01/14 01:15:06;;;;;;;14.73;1.58;;;5.40;99.90;;;;;;5063571;28;20507;-50
2024/01/14 01:17:32;;;;;;;14.10;1.88;;;5.30;99.90;;;;;;5061694;28;20051;-48
2024/01/14 01:20:01;;;;;;;10.75;1.55;;;5.40;99.90;;;;;;5053758;28;20636;-48
2024/01/14 01:22:27;;;;;;;14.15;2.17;;;5.30;99.90;;;;;;5061826;28;20045;-46
2024/01/14 01:24:53;;;;;;;17.42;2.55;;;5.30;99.90;;;;;;5055906;28;20036;-47
2024/01/14 01:27:19;;;;;;;12.68;1.83;;;5.30;99.90;;;;;;5061971;28;20033;-51
2024/01/14 01:29:44;;;;;;;12.35;2.00;;;5.20;99.90;;;;;;5063669;28;20032;-47
2024/01/14 01:32:11;;;;;;;11.95;2.00;;;5.30;99.90;;;;;;5063483;28;20052;-49
2024/01/14 01:34:37;;;;;;;15.30;2.55;;;5.20;99.90;;;;;;5059150;28;20044;-47
2024/01/14 01:37:04;;;;;;;12.68;2.00;;;5.10;99.90;;;;;;5062150;28;20033;-50
2024/01/14 01:39:30;;;;;;;7.28;2.35;;;5.10;99.90;;;;;;5063907;28;20048;-48
2024/01/14 01:41:57;;;;;;;16.00;1.67;;;5.00;99.90;;;;;;5058513;28;20146;-49
2024/01/14 01:44:23;;;;;;;7.40;1.85;;;4.90;99.90;;;;;;5058619;28;20040;-48
2024/01/14 01:46:50;;;;;;;10.15;1.65;;;4.90;99.90;;;;;;5062271;28;20047;-50
2024/01/14 01:49:16;;;;;;;8.43;1.67;;;4.80;99.90;;;;;;5046439;28;20515;-48
2024/01/14 01:51:47;;;;;;;10.38;1.13;;;4.80;99.90;;;;;;5053010;28;20424;-50
2024/01/14 01:54:18;;;;;;;8.88;1.33;;;4.70;99.90;;;;;;5063009;28;20071;-48
2024/01/14 01:56:44;;;;;;;13.68;1.48;;;4.60;99.90;;;;;;5063603;28;20070;-48
2024/01/14 01:59:10;;;;;;;8.65;1.77;;;4.70;99.90;;;;;;5058529;28;20041;-51
2024/01/14 02:01:37;;;;;;;5.95;1.40;;;4.70;99.90;;;;;;5063335;28;20106;-50
2024/01/14 02:04:04;;;;;;;13.05;1.38;;;4.60;99.90;;;;;;5051153;28;20421;-49
2024/01/14 02:06:32;;;;;;;12.80;1.30;;;4.70;99.90;;;;;;5056202;28;20039;-48
2024/01/14 02:08:58;;;;;;;18.40;2.55;;;4.60;99.90;;;;;;5054707;28;20048;-48
2024/01/14 02:11:24;;;;;;;9.73;1.80;;;4.60;99.90;;;;;;5069653;28;20033;-49
2024/01/14 02:13:50;;;;;;;13.30;1.67;;;4.50;99.90;;;;;;5063061;28;20197;-47
2024/01/14 02:16:16;;;;;;;13.10;1.80;;;4.50;99.90;;;;;;5043533;28;20086;-50
2024/01/14 02:18:41;;;;;;;14.05;2.13;;;4.50;99.90;;;;;;5058995;28;20082;-47
2024/01/14 02:21:10;;;;;;;9.70;1.48;;;4.50;99.90;;;;;;5056411;28;20155;-50
2024/01/14 02:23:43;;;;;;;13.98;1.60;;;4.50;99.90;;;;;;5056136;28;20577;-49
2024/01/14 02:26:09;;;;;;;10.70;1.63;;;4.40;99.90;;;;;;5060572;28;20051;-48
2024/01/14 02:28:35;;;;;;;16.00;2.25;;;4.40;99.90;;;;;;5054463;28;20147;-52
2024/01/14 02:31:02;;;;;;;11.60;1.65;;;4.50;99.90;;;;;;5058862;28;20090;-50
2024/01/14 02:33:27;;;;;;;18.63;2.15;;;4.40;99.90;;;;;;5062801;28;20044;-47
2024/01/14 02:35:53;;;;;;;16.75;3.47;;;4.40;99.90;;;;;;5050777;28;20506;-47
2024/01/14 02:38:19;;;;;;;14.77;2.72;;;4.40;99.90;;;;;;5058409;28;20063;-48
2024/01/14 02:40:44;;;;;;;23.40;3.22;;;4.40;99.90;;;;;;5061482;28;20037;-48
2024/01/14 02:43:10;;;;;;;18.42;1.90;;;4.50;99.90;;;;;;5060307;28;20098;-49
2024/01/14 02:45:36;;;;;;;15.65;2.47;;;4.50;99.90;;;;;;5061321;28;20051;-47
2024/01/14 02:48:02;;;;;;;14.95;2.65;;;4.50;99.90;;;;;;5059889;28;20047;-48
2024/01/14 02:50:27;;;;;;;18.00;2.47;;;4.50;99.90;;;;;;5058647;28;20048;-49
2024/01/14 02:52:53;;;;;;;12.85;2.30;;;4.60;99.90;;;;;;5042097;28;20391;-48
2024/01/14 02:55:19;;;;;;;10.65;2.30;;;4.60;99.90;;;;;;5059144;28;20127;-48
2024/01/14 02:57:45;;;;;;;13.50;1.92;;;4.60;99.90;;;;;;5062955;28;20029;-52
2024/01/14 03:00:12;;;;;;;18.55;2.47;;;4.60;99.90;;;;;;5052085;28;20143;-48
2024/01/14 03:02:37;;;;;;;14.35;2.45;;;4.60;99.90;;;;;;5059943;28;20044;-51
2024/01/14 03:05:04;;;;;;;12.77;1.88;;;4.60;99.90;;;;;;5059481;28;20036;-47
2024/01/14 03:07:29;;;;;;;17.80;3.53;;;4.60;99.90;;;;;;5062238;28;20170;-46
2024/01/14 03:09:55;;;;;;;12.93;2.47;;;4.60;99.90;;;;;;5063715;28;20128;-48
2024/01/14 03:12:21;;;;;;;7.43;1.60;;;4.60;99.90;;;;;;5065220;28;20558;-51
2024/01/14 03:14:47;;;;;;;14.40;2.10;;;4.60;99.90;;;;;;5065525;28;20036;-48
2024/01/14 03:17:12;;;;;;;10.48;1.50;;;4.50;99.90;;;;;;5063918;28;20463;-51
2024/01/14 03:19:38;;;;;;;13.07;2.22;;;4.50;99.90;;;;;;5064409;28;20538;-47
2024/01/14 03:22:04;;;;;;;16.45;2.40;;;4.50;99.90;;;;;;5064843;28;20081;-48
2024/01/14 03:24:30;;;;;;;12.82;2.13;;;4.50;99.90;;;;;;5062961;28;20459;-48
2024/01/14 03:26:56;;;;;;;16.75;1.92;;;4.50;99.90;;;;;;5060251;28;20139;-48
2024/01/14 03:29:21;;;;;;;15.73;2.28;;;4.50;99.90;;;;;;5064442;28;20102;-49
2024/01/14 03:31:47;;;;;;;10.73;2.00;;;4.50;99.90;;;;;;5065972;28;20043;-49
2024/01/14 03:34:13;;;;;;;17.45;2.65;;;4.50;99.90;;;;;;5064050;28;20045;-47
2024/01/14 03:36:38;;;;;;;9.60;2.35;;;4.50;99.90;;;;;;5063280;28;20106;-50
2024/01/14 03:39:05;;;;;;;11.07;2.00;;;4.60;99.90;;;;;;5064634;28;20584;-49
2024/01/14 03:41:32;;;;;;;12.48;2.15;;;4.60;99.90;;;;;;5064389;28;20045;-50
2024/01/14 03:43:57;;;;;;;11.35;2.38;;;4.60;99.90;;;;;;5063283;28;20433;-49
2024/01/14 03:46:23;;;;;;;16.77;2.47;;;4.70;99.90;;;;;;5061417;28;20043;-47
2024/01/14 03:48:49;;;;;;;19.73;2.47;;;4.70;99.90;;;;;;5062661;28;20395;-51
2024/01/14 03:51:15;;;;;;;18.10;2.95;;;4.70;99.90;;;;;;5063430;28;20048;-49
2024/01/14 03:53:40;;;;;;;15.82;2.70;;;4.60;99.90;;;;;;5065311;28;20402;-47
2024/01/14 03:56:06;;;;;;;12.77;2.25;;;4.60;99.90;;;;;;5065481;28;20041;-51
2024/01/14 03:58:32;;;;;;;11.82;2.10;;;4.60;99.90;;;;;;5061913;28;20095;-50
2024/01/14 04:00:58;;;;;;;11.95;1.83;;;4.50;99.90;;;;;;5052720;28;20546;-47
2024/01/14 04:03:23;;;;;;;12.70;2.00;;;4.40;99.90;;;;;;5066141;28;20036;-47
2024/01/14 04:05:49;;;;;;;17.13;2.80;;;4.40;99.90;;;;;;5065601;28;20112;-48
2024/01/14 04:08:15;;;;;;;17.05;2.45;;;4.30;99.90;;;;;;5064837;28;20442;-50
2024/01/14 04:10:41;;;;;;;18.13;2.33;;;4.30;99.90;;;;;;5066023;28;20781;-48
2024/01/14 04:13:06;;;;;;;8.43;2.33;;;4.30;99.90;;;;;;5064529;28;20372;-49
2024/01/14 04:15:32;;;;;;;16.13;2.63;;;4.30;99.90;;;;;;5065595;28;20049;-46
2024/01/14 04:17:58;;;;;;;16.52;2.17;;;4.10;99.90;;;;;;5061646;28;20119;-49
2024/01/14 04:20:24;;;;;;;16.88;2.47;;;3.90;99.90;;;;;;5064590;28;20041;-47
2024/01/14 04:22:50;;;;;;;10.30;2.03;;;4.00;99.90;;;;;;5065115;28;20040;-48
2024/01/14 04:25:16;;;;;;;14.90;2.00;;;4.00;99.90;;;;;;5064937;28;20041;-48
2024/01/14 04:27:42;;;;;;;19.90;2.35;;;3.90;99.90;;;;;;5059103;28;20078;-48
2024/01/14 04:30:08;;;;;;;21.45;3.25;;;3.90;99.90;;;;;;5062097;28;20040;-48
2024/01/14 04:32:35;;;;;;;10.95;2.58;;;3.90;99.90;;;;;;5042892;28;20037;-50
2024/01/14 04:35:00;;;;;;;14.15;1.90;;;3.90;99.90;;;;;;5061461;28;20076;-51
2024/01/14 04:37:26;;;;;;;10.48;2.58;;;3.90;99.90;;;;;;5064382;28;20080;-48
2024/01/14 04:39:53;;;;;;;17.65;2.58;;;3.90;99.90;;;;;;5061567;28;20114;-47
2024/01/14 04:42:19;;;;;;;15.23;2.85;;;3.90;99.90;;;;;;5062616;28;20048;-48
2024/01/14 04:44:45;;;;;;;13.73;1.80;;;3.90;99.90;;;;;;5061968;28;20045;-50
2024/01/14 04:47:10;;;;;;;13.55;2.83;;;3.80;99.90;;;;;;5063245;28;20491;-51
2024/01/14 04:49:36;;;;;;;14.88;2.67;;;3.80;99.90;;;;;;5047651;28;20044;-48
2024/01/14 04:52:02;;;;;;;18.42;2.60;;;3.80;99.90;;;;;;5063464;28;20036;-49
2024/01/14 04:54:28;;;;;;;12.48;2.50;;;3.80;99.90;;;;;;5064318;28;20036;-49
2024/01/14 04:56:54;;;;;;;12.32;1.85;;;3.80;99.90;;;;;;5038996;28;20040;-46
2024/01/14 04:59:19;;;;;;;16.33;2.35;;;3.80;99.90;;;;;;5063288;28;20032;-48
2024/01/14 05:01:45;;;;;;;14.27;1.88;;;3.80;99.90;;;;;;5046615;28;20056;-51
2024/01/14 05:04:12;;;;;;;16.60;2.97;;;3.80;99.90;;;;;;5059668;28;20420;-49
2024/01/14 05:06:38;;;;;;;11.00;1.83;;;3.70;99.90;;;;;;5054306;28;20049;-50
2024/01/14 05:09:03;;;;;;;18.40;2.38;;;3.60;99.90;;;;;;5057054;28;20055;-48
2024/01/14 05:11:29;;;;;;;17.95;2.67;;;3.60;99.90;;;;;;5046140;28;20071;-49
2024/01/14 05:13:55;;;;;;;16.40;2.30;;;3.70;99.90;;;;;;5059766;28;20112;-50
2024/01/14 05:16:20;;;;;;;11.68;1.95;;;3.60;99.90;;;;;;5064251;28;20491;-50
2024/01/14 05:18:46;;;;;;;13.82;1.92;;;3.60;99.90;;;;;;5058240;28;20072;-48
2024/01/14 05:21:16;;;;;;;19.33;2.30;;;3.50;99.90;;;;;;5063589;28;20044;-49
2024/01/14 05:23:42;;;;;;;11.85;2.13;;;3.60;99.90;;;;;;5061097;28;20469;-49
2024/01/14 05:26:10;;;;;;;14.60;2.20;;;3.50;99.90;;;;;;5060246;28;20509;-48
2024/01/14 05:28:35;;;;;;;9.43;1.80;;;3.50;99.90;;;;;;5058023;28;20438;-49
2024/01/14 05:31:01;;;;;;;17.42;2.28;;;3.60;99.90;;;;;;5064120;28;20045;-46
2024/01/14 05:33:27;;;;;;;7.60;1.65;;;3.50;99.90;;;;;;5062995;28;20044;-49
2024/01/14 05:35:53;;;;;;;15.73;2.30;;;3.60;99.90;;;;;;5057354;28;20082;-49
2024/01/14 05:38:19;;;;;;;20.88;3.05;;;3.50;99.90;;;;;;5063199;28;20041;-47
2024/01/14 05:40:45;;;;;;;22.58;3.28;;;3.60;99.90;;;;;;5056759;28;20047;-49
2024/01/14 05:43:10;;;;;;;14.52;2.92;;;3.70;99.90;;;;;;5042013;28;20040;-49
2024/01/14 05:45:36;;;;;;;8.63;2.10;;;3.60;99.90;;;;;;5062788;28;20082;-49
2024/01/14 05:48:02;;;;;;;22.63;3.08;;;3.60;99.90;;;;;;5060074;28;20430;-48
2024/01/14 05:50:28;;;;;;;16.92;2.13;;;3.70;99.90;;;;;;5061136;28;20117;-50
2024/01/14 05:52:54;;;;;;;16.77;2.50;;;3.70;99.90;;;;;;5063493;28;20039;-47
2024/01/14 05:55:19;;;;;;;17.98;3.15;;;3.70;99.90;;;;;;5059744;28;20028;-49
2024/01/14 05:57:46;;;;;;;16.23;2.72;;;3.80;99.90;;;;;;5061718;28;20398;-51
2024/01/14 06:00:13;;;;;;;16.02;2.67;;;3.70;99.90;;;;;;5059823;28;20601;-50
2024/01/14 06:02:39;;;;;;;13.27;2.70;;;3.70;99.90;;;;;;5058611;28;20073;-48
2024/01/14 06:05:05;;;;;;;24.15;2.85;;;3.80;99.90;;;;;;5061326;28;20095;-50
2024/01/14 06:07:31;;;;;;;17.10;3.00;;;3.70;99.90;;;;;;5060546;28;20071;-47
2024/01/14 06:09:56;;;;;;;22.02;2.90;;;3.80;99.90;;;;;;5063125;28;20045;-47
2024/01/14 06:12:22;;;;;;;15.40;2.60;;;3.70;99.90;;;;;;5062739;28;20047;-47
2024/01/14 06:14:48;;;;;;;16.05;2.55;;;3.80;99.90;;;;;;5062832;28;20124;-48
2024/01/14 06:17:13;;;;;;;21.83;2.90;;;3.80;99.90;;;;;;5059862;28;20037;-48
2024/01/14 06:19:41;;;;;;;15.95;3.22;;;3.80;99.90;;;;;;5060167;28;20044;-48
2024/01/14 06:22:07;;;;;;;15.55;2.72;;;3.80;99.90;;;;;;5057467;28;20458;-47
2024/01/14 06:24:33;;;;;;;11.02;2.22;;;3.80;99.90;;;;;;5060289;28;20223;-46
2024/01/14 06:26:59;;;;;;;19.55;2.67;;;3.80;99.90;;;;;;5057261;28;20392;-48
2024/01/14 06:29:24;;;;;;;13.18;2.40;;;3.70;99.90;;;;;;5043214;28;20044;-50
2024/01/14 06:31:50;;;;;;;18.70;2.28;;;3.80;99.90;;;;;;5059920;28;20036;-49
2024/01/14 06:34:16;;;;;;;17.90;2.92;;;3.70;99.90;;;;;;5057978;28;20040;-48
2024/01/14 06:36:42;;;;;;;23.00;4.10;;;3.70;99.90;;;;;;5059932;28;20158;-48
2024/01/14 06:39:07;;;;;;;25.95;4.38;;;3.70;99.90;;;;;;5062289;28;20039;-47
2024/01/14 06:41:34;;;;;;;16.55;2.88;;;3.70;99.90;;;;;;5029905;28;20037;-50
2024/01/14 06:44:00;;;;;;;24.58;2.85;;;3.70;99.90;;;;;;5065405;28;20036;-51
2024/01/14 06:46:25;;;;;;;16.17;2.53;;;3.70;99.90;;;;;;5063573;28;20121;-48
2024/01/14 06:48:51;;;;;;;17.33;2.80;;;3.70;99.90;;;;;;5064098;28;20036;-48
2024/01/14 06:51:17;;;;;;;13.30;3.30;;;3.70;99.90;;;;;;5063539;28;20422;-51
2024/01/14 06:53:43;;;;;;;19.05;4.07;;;3.70;99.90;;;;;;5064874;28;20028;-49
2024/01/14 06:56:09;;;;;;;12.45;2.75;;;3.70;99.90;;;;;;5063403;28;20437;-49
2024/01/14 06:58:35;;;;;;;15.88;2.40;;;3.60;99.90;;;;;;5063309;28;20383;-49
2024/01/14 07:01:03;;;;;;;14.25;2.95;;;3.60;99.90;;;;;;5064098;28;20036;-49
2024/01/14 07:03:29;;;;;;;11.97;2.67;;;3.70;99.90;;;;;;5064047;28;20044;-49
2024/01/14 07:05:55;;;;;;;21.33;2.75;;;3.60;99.90;;;;;;5062449;28;20533;-51
2024/01/14 07:08:20;;;;;;;14.95;2.35;;;3.60;99.90;;;;;;5064055;28;20117;-49
2024/01/14 07:10:46;;;;;;;10.57;1.70;;;3.50;99.90;;;;;;5063573;28;20049;-50
2024/01/14 07:13:12;;;;;;;14.05;2.88;;;3.50;99.90;;;;;;5064359;28;20036;-49
2024/01/14 07:15:38;;;;;;;10.57;2.20;;;3.50;99.90;;;;;;5061758;28;20036;-49
2024/01/14 07:18:04;;;;;;;12.43;2.03;;;3.50;99.90;;;;;;5051869;28;20487;-49
2024/01/14 07:20:30;;;;;;;17.48;3.05;;;3.50;99.90;;;;;;5062039;28;20059;-50
2024/01/14 07:22:56;;;;;;;13.20;2.00;;;3.40;99.90;;;;;;5059043;28;20067;-49
2024/01/14 07:25:22;;;;;;;13.38;2.95;;;3.40;99.90;;;;;;5060213;28;20048;-50
2024/01/14 07:27:48;;;;;;;15.35;2.20;;;3.40;99.90;;;;;;5061798;28;20050;-51
2024/01/14 07:30:17;;;;;;;8.85;2.13;;;3.40;99.90;;;;;;5060135;28;20567;-50
2024/01/14 07:32:43;;;;;;;12.35;2.15;;;3.40;99.90;;;;;;5061108;28;20037;-52
2024/01/14 07:35:09;;;;;;;13.75;2.15;;;3.40;99.90;;;;;;5059830;28;20306;-48
2024/01/14 07:37:35;;;;;;;20.20;2.47;;;3.40;99.90;;;;;;5059848;28;20054;-51
2024/01/14 07:40:01;;;;;;;12.25;2.13;;;3.30;99.90;;;;;;5063259;28;20110;-51
2024/01/14 07:42:27;;;;;;;19.23;3.00;;;3.30;99.90;;;;;;5063255;28;20044;-48
2024/01/14 07:44:53;;;;;;;13.02;2.00;;;3.40;99.90;;;;;;5052142;28;20063;-49
2024/01/14 07:47:20;;;;;;;16.65;1.95;;;3.30;99.90;;;;;;5062958;28;20510;-51
2024/01/14 07:49:48;;;;;;;18.20;2.60;;;3.40;99.90;;;;;;5062424;28;20040;-48
2024/01/14 07:52:17;;;;;;;16.00;2.90;;;3.50;99.90;;;;;;5060149;28;20044;-49
2024/01/14 07:54:43;;;;;;;17.38;2.38;;;3.40;99.90;;;;;;5045131;28;20032;-47
2024/01/14 07:57:10;;;;;;;20.38;2.58;;;3.50;99.90;;;;;;5053021;28;20175;-50
2024/01/14 07:59:36;;;;;;;11.85;2.35;;;3.50;99.90;;;;;;5061694;28;20039;-52
2024/01/14 08:02:02;;;;;;;15.05;2.53;;;3.50;99.90;;;;;;5062485;28;20427;-50
2024/01/14 08:04:28;;;;;;;11.98;2.13;;;3.50;99.90;;;;;;5061708;28;20435;-48
2024/01/14 08:06:54;;;;;;;14.95;3.10;;;3.50;99.90;;;;;;5062130;28;20575;-49
2024/01/14 08:09:20;;;;;;;13.20;2.35;;;3.60;99.90;;;;;;5062037;28;20398;-50
2024/01/14 08:11:46;;;;;;;11.98;2.13;;;3.50;99.90;;;;;;5059492;28;20033;-51
2024/01/14 08:14:11;;;;;;;12.63;1.92;;;3.60;99.90;;;;;;5056763;28;20418;-49
2024/01/14 08:16:37;;;;;;;18.13;2.47;;;3.50;99.90;;;;;;5060753;28;20406;-49
2024/01/14 08:19:03;;;;;;;17.38;2.65;;;3.50;99.90;;;;;;5062419;28;20094;-48
2024/01/14 08:21:29;;;;;;;11.27;2.17;;;3.50;99.90;;;;;;5060419;28;20061;-48
2024/01/14 08:23:55;;;;;;;7.95;2.03;;;3.50;99.90;;;;;;5058178;28;20127;-47
2024/01/14 08:26:20;;;;;;;12.57;2.10;;;3.50;99.90;;;;;;5058084;28;20402;-51
2024/01/14 08:28:46;;;;;;;10.25;2.00;;;3.50;99.90;;;;;;5056519;28;20576;-48
2024/01/14 08:31:12;;;;;;;13.90;2.50;;;3.40;99.90;;;;;;5053387;28;20102;-50
2024/01/14 08:33:41;;;;;;;17.23;2.20;;;3.40;99.90;;;;;;5058711;28;20056;-51
2024/01/14 08:36:08;;;;;;;16.73;2.30;;;3.40;99.90;;;;;;5061330;28;20048;-46
2024/01/14 08:38:35;;;;;;;15.63;2.10;;;3.40;99.90;;;;;;5021665;28;20044;-51
2024/01/14 08:41:01;;;;;;;13.40;2.20;;;3.30;99.90;;;;;;5052547;28;20110;-47
2024/01/14 08:43:27;;;;;;;12.27;1.70;;;3.30;99.90;;;;;;5062881;28;20044;-51
2024/01/14 08:45:53;;;;;;;17.50;2.25;;;3.50;99.90;;;;;;5062236;28;20534;-50
2024/01/14 08:48:18;;;;;;;8.23;1.63;;;3.60;99.90;;;;;;5063264;28;20555;-48
2024/01/14 08:50:44;;;;;;;9.43;2.38;;;3.60;99.90;;;;;;5061771;28;20040;-49
2024/01/14 08:53:10;;;;;;;10.35;1.85;;;3.70;99.90;;;;;;5063009;28;20028;-50
2024/01/14 08:55:35;;;;;;;13.68;1.90;;;3.70;99.90;;;;;;5062485;28;20477;-50
2024/01/14 08:58:01;;;;;;;13.15;1.50;;;3.70;99.90;;;;;;5062616;28;20037;-52
2024/01/14 09:00:27;;;;;;;8.05;1.60;;;3.80;99.90;;;;;;5060802;28;20044;-48
2024/01/14 09:02:52;;;;;;;12.23;1.90;;;3.70;99.90;;;;;;5061715;28;20032;-47
2024/01/14 09:05:18;;;;;;;12.43;2.15;;;3.60;99.90;;;;;;5062073;28;20190;-47
2024/01/14 09:07:44;;;;;;;13.63;1.70;;;3.70;99.90;;;;;;5062032;28;20037;-49
2024/01/14 09:10:10;;;;;;;10.27;1.67;;;3.80;99.90;;;;;;5062331;28;20041;-51
2024/01/14 09:12:36;;;;;;;9.85;1.48;;;3.80;99.90;;;;;;5061882;28;20115;-49
2024/01/14 09:15:02;;;;;;;13.38;1.80;;;3.80;99.90;;;;;;5062214;28;20040;-50
2024/01/14 09:17:28;;;;;;;8.52;1.70;;;3.90;99.90;;;;;;5062259;28;20086;-52
2024/01/14 09:19:53;;;;;;;13.25;2.03;;;3.90;99.90;;;;;;5061483;28;20040;-50
2024/01/14 09:22:19;;;;;;;27.50;4.68;;;3.90;99.90;;;;;;5059742;28;20481;-47
2024/01/14 09:24:46;;;;;;;17.77;5.75;;;4.10;99.90;;;;;;5061949;28;20036;-51
2024/01/14 09:27:17;;;;;;;13.70;3.25;;;4.10;99.90;;;;;;5061776;28;20083;-48
2024/01/14 09:29:43;;;;;;;18.70;2.45;;;4.10;99.90;;;;;;5061098;28;20044;-50
2024/01/14 09:32:08;;;;;;;13.27;2.10;;;4.20;99.90;;;;;;5058702;28;20066;-51
2024/01/14 09:34:34;;;;;;;11.18;1.77;;;4.30;99.90;;;;;;5060090;28;20296;-51
2024/01/14 09:37:00;;;;;;;11.98;1.70;;;4.30;99.90;;;;;;5060663;28;20029;-49
2024/01/14 09:39:26;;;;;;;13.32;1.98;;;4.40;99.90;;;;;;5059006;28;20063;-52
2024/01/14 09:41:51;;;;;;;8.65;1.80;;;4.50;99.90;;;;;;5061223;28;20089;-50
2024/01/14 09:44:17;;;;;;;15.57;2.60;;;4.50;99.90;;;;;;5060598;28;20044;-48
2024/01/14 09:46:44;;;;;;;21.45;2.05;;;4.50;99.90;;;;;;5059551;28;20435;-51
2024/01/14 09:49:11;;;;;;;11.55;1.92;;;4.60;99.90;;;;;;5060157;28;20155;-49
2024/01/14 09:51:39;;;;;;;11.52;2.08;;;4.50;99.90;;;;;;5061704;28;20032;-48
2024/01/14 09:54:05;;;;;;;8.80;2.08;;;4.60;99.90;;;;;;5059486;28;20369;-51
2024/01/14 09:56:33;;;;;;;15.75;2.03;;;4.60;99.90;;;;;;5049478;28;20143;-50
2024/01/14 09:59:00;;;;;;;13.90;2.20;;;4.70;99.90;;;;;;5061457;28;20090;-48
2024/01/14 10:01:31;;;;;;;10.93;2.17;;;4.70;99.90;;;;;;5060554;28;20040;-48
2024/01/14 10:04:05;;;;;;;14.23;2.40;;;4.80;99.90;;;;;;5061640;28;20109;-49
2024/01/14 10:06:31;;;;;;;17.52;2.80;;;5.00;99.90;;;;;;5060788;28;20043;-52
2024/01/14 10:08:58;;;;;;;12.18;2.33;;;5.10;99.90;;;;;;5060860;28;20037;-47
2024/01/14 10:11:24;;;;;;;19.65;3.03;;;5.30;99.90;;;;;;5061073;28;20119;-48
2024/01/14 10:13:50;;;;;;;19.63;2.63;;;5.30;99.90;;;;;;5060077;28;20389;-52
2024/01/14 10:16:17;;;;;;;11.60;2.20;;;5.40;99.90;;;;;;5060662;28;20043;-52
2024/01/14 10:18:43;;;;;;;12.88;2.08;;;5.50;99.90;;;;;;5060405;28;20047;-51
2024/01/14 10:21:11;;;;;;;8.77;2.40;;;5.50;99.90;;;;;;5059347;28;20036;-48
2024/01/14 10:23:39;;;;;;;11.32;2.40;;;5.60;99.90;;;;;;5060542;28;20032;-48
2024/01/14 10:26:05;;;;;;;10.93;2.47;;;5.60;99.90;;;;;;5060469;28;20040;-47
2024/01/14 10:28:35;;;;;;;12.63;2.15;;;5.60;99.90;;;;;;5061142;28;20449;-48
2024/01/14 10:31:03;;;;;;;13.77;2.10;;;5.60;99.90;;;;;;5060165;28;20036;-49
2024/01/14 10:33:32;;;;;;;15.52;3.83;;;5.80;99.90;;;;;;5057600;28;20033;-52
2024/01/14 10:36:06;;;;;;;13.23;2.83;;;5.70;99.90;;;;;;5059122;28;20079;-48
2024/01/14 10:38:32;;;;;;;9.10;2.20;;;5.80;99.90;;;;;;5060605;28;20041;-49
2024/01/14 10:40:58;;;;;;;13.15;2.25;;;5.80;99.90;;;;;;5059864;28;20624;-50
2024/01/14 10:43:26;;;;;;;17.40;2.35;;;5.90;99.90;;;;;;5060461;28;20489;-52
2024/01/14 10:45:52;;;;;;;13.05;1.88;;;5.90;99.90;;;;;;5059326;28;20083;-51
2024/01/14 10:48:27;;;;;;;9.45;2.00;;;6.00;99.90;;;;;;5059845;28;20371;-49
2024/01/14 10:50:56;;;;;;;11.73;1.85;;;5.90;99.90;;;;;;5060629;28;20040;-50
2024/01/14 10:53:30;;;;;;;17.05;2.25;;;5.80;99.90;;;;;;5059794;28;20468;-53
2024/01/14 10:56:01;;;;;;;11.27;1.92;;;5.80;99.90;;;;;;5059977;28;20090;-50
2024/01/14 10:58:30;;;;;;;9.10;2.58;;;5.80;99.90;;;;;;5059203;28;20040;-49
2024/01/14 11:00:59;;;;;;;;;;;5.90;99.90;;;;;;5066677;28;20048;-47
2024/01/14 11:03:27;;;;;;;9.60;2.25;;;6.00;99.90;;;;;;5060602;28;19928;-48
2024/01/14 11:05:54;;;;;;;7.50;1.80;;;6.30;99.90;;;;;;5061046;28;20342;-48
2024/01/14 11:08:21;;;;;;;12.38;1.83;;;6.30;99.90;;;;;;5059400;28;20067;-49
2024/01/14 11:10:49;;;;;;;14.00;2.97;;;6.20;99.90;;;;;;5060495;28;21265;-47
2024/01/14 11:13:27;;;;;;;12.73;1.70;;;6.10;99.90;;;;;;5061171;28;20503;-53
2024/01/14 11:16:14;;;;;;;9.75;1.50;;;6.20;99.90;;;;;;5059095;28;20137;-50
2024/01/14 11:19:05;;;;;;;12.82;2.42;;;6.30;99.90;;;;;;5058901;28;20048;-50
2024/01/14 11:21:56;;;;;;;16.27;1.88;;;6.30;99.90;;;;;;5060236;28;20572;-49
2024/01/14 11:24:25;;;;;;;10.50;1.83;;;6.30;99.90;;;;;;5060318;28;20146;-50
2024/01/14 11:26:51;;;;;;;10.65;3.20;;;6.30;99.90;;;;;;5063764;28;20080;-50
2024/01/14 11:29:31;;;;;;;12.63;1.98;;;6.30;99.90;;;;;;5063943;28;20053;-48
2024/01/14 11:32:11;;;;;;;17.00;2.47;;;6.30;99.90;;;;;;5063330;28;20662;-50
2024/01/14 11:34:46;;;;;;;11.18;2.28;;;6.20;99.90;;;;;;5062199;28;20045;-50
2024/01/14 11:37:30;;;;;;;11.25;1.98;;;6.20;99.90;;;;;;5063614;28;20403;-52
2024/01/14 11:40:11;;;;;;;10.88;1.98;;;6.10;99.90;;;;;;5061605;28;20109;-52
2024/01/14 11:42:50;;;;;;;11.00;1.85;;;6.10;99.90;;;;;;5063125;28;20093;-48
2024/01/14 11:45:27;;;;;;;10.50;2.03;;;6.10;99.90;;;;;;5062320;28;20109;-49
2024/01/14 11:47:56;;;;;;;14.65;2.13;;;6.20;99.90;;;;;;5065664;28;20087;-50
2024/01/14 11:50:24;;;;;;;6.03;1.75;;;6.30;99.90;;;;;;5065926;28;20036;-51
2024/01/14 11:52:53;;;;;;;10.33;2.13;;;6.60;99.90;;;;;;5063823;28;20054;-52
2024/01/14 11:55:30;;;;;;;14.20;2.08;;;6.70;99.90;;;;;;5062654;28;20044;-50
2024/01/14 11:58:15;;;;;;;10.80;2.05;;;6.80;99.90;;;;;;5064685;28;20047;-52
2024/01/14 12:00:42;;;;;;;9.60;1.65;;;6.90;99.90;;;;;;5062005;28;20044;-49
2024/01/14 12:03:13;;;;;;;6.85;1.60;;;6.80;99.90;;;;;;5060883;28;20079;-50
2024/01/14 12:05:40;;;;;;;7.35;2.03;;;6.80;99.90;;;;;;5062328;28;20515;-51
2024/01/14 12:08:07;;;;;;;10.52;1.88;;;6.80;99.90;;;;;;5063014;28;20041;-51
2024/01/14 12:10:33;;;;;;;9.68;1.52;;;6.90;99.90;;;;;;5062637;28;20040;-49
2024/01/14 12:13:01;;;;;;;15.50;2.17;;;6.90;99.90;;;;;;5063502;28;20037;-51
2024/01/14 12:15:28;;;;;;;13.23;1.85;;;7.00;99.90;;;;;;5063072;28;20046;-51
2024/01/14 12:17:58;;;;;;;14.52;1.95;;;7.00;99.90;;;;;;5063174;28;20390;-48
2024/01/14 12:20:25;;;;;;;10.18;2.17;;;6.90;99.90;;;;;;5062567;28;20597;-49
2024/01/14 12:23:02;;;;;;;8.15;1.73;;;6.90;99.90;;;;;;5064317;28;20040;-51
2024/01/14 12:25:29;;;;;;;8.85;1.52;;;6.80;99.90;;;;;;5063075;28;20063;-52
2024/01/14 12:27:55;;;;;;;8.20;1.48;;;6.70;99.90;;;;;;5062143;28;20151;-52
2024/01/14 12:30:34;;;;;;;11.55;2.05;;;6.70;99.90;;;;;;5062799;28;20067;-51
2024/01/14 12:33:08;;;;;;;8.52;1.67;;;6.70;99.90;;;;;;5055428;28;20067;-50
2024/01/14 12:35:38;;;;;;;11.68;2.20;;;6.70;99.90;;;;;;5044924;28;20045;-51
2024/01/14 12:38:06;;;;;;;7.30;1.65;;;6.60;99.90;;;;;;5047193;28;20194;-48
2024/01/14 12:40:32;;;;;;;11.90;1.80;;;6.60;99.90;;;;;;5060267;28;20045;-50
2024/01/14 12:43:00;;;;;;;16.90;2.65;;;6.60;99.90;;;;;;5060874;28;20471;-53
2024/01/14 12:45:26;;;;;;;9.02;1.73;;;6.70;99.90;;;;;;5059146;28;20048;-52
2024/01/14 12:48:02;;;;;;;11.18;1.83;;;6.70;99.90;;;;;;5059540;28;20054;-48